Retie, Belgium
Current Conditions -  °F | °C
As of 8:55 AM on Thursday 29 Jan 2015 (Local Time) from EBBL Reporting Station
Scattered Clouds Scattered Clouds  
Wind Chill: 26°   Ceiling: Unl
Heat Index: 36°   Visibility: 6mi
Dew Point: 30°   Wind: 16mph
Humidity: 81%   Direction: 230°SW
Pressure: 29.26"   Gusts: NA
Location:  51.27°N, 5.08°E
Report Text: EBBL 290755Z 23014KT 9999 FEW014 SCT023 02/M01 Q0991 WHT BLU TEMPO GRN
Loading
Personal Weather Stations






























Interactive Weather Map New forecast layout! Learn more

10-Day Weather Forecast

Advertisements
Track Severe Weather on mobile